createdAt,value
2022-11-24T09:40:05.103Z,10.36
2022-11-24T09:42:40.841Z,10.49
2022-11-24T09:45:22.883Z,10.61
2022-11-24T09:48:03.567Z,10.65
2022-11-24T09:50:33.442Z,10.60
2022-11-24T09:53:10.662Z,10.50
2022-11-24T09:55:39.111Z,10.49
2022-11-24T09:58:20.879Z,10.50
2022-11-24T10:00:49.495Z,10.48
2022-11-24T10:03:18.621Z,10.43
2022-11-24T10:05:46.304Z,10.43
2022-11-24T10:08:34.781Z,10.47
2022-11-24T10:11:03.006Z,10.47
2022-11-24T10:13:42.739Z,10.49
2022-11-24T10:16:17.906Z,10.49
2022-11-24T10:18:50.983Z,10.48
2022-11-24T10:21:32.888Z,10.49
2022-11-24T10:24:14.723Z,10.50
2022-11-24T10:26:44.644Z,10.52
2022-11-24T10:29:18.784Z,10.53
2022-11-24T10:31:45.742Z,10.53
2022-11-24T10:34:15.198Z,10.55
2022-11-24T10:36:52.055Z,10.60
2022-11-24T10:39:28.355Z,10.60
2022-11-24T10:41:55.523Z,10.64
2022-11-24T10:44:22.086Z,10.67
2022-11-24T10:47:00.817Z,10.68
2022-11-24T10:49:29.996Z,10.77
2022-11-24T10:55:04.487Z,10.92
2022-11-24T10:57:32.591Z,10.97
2022-11-24T10:59:59.714Z,11.02
2022-11-24T11:02:29.029Z,11.07
2022-11-24T11:04:55.649Z,11.02
2022-11-24T11:07:25.164Z,11.03
2022-11-24T11:10:11.800Z,11.03
2022-11-24T11:12:45.747Z,11.05
2022-11-24T11:15:22.939Z,11.07
2022-11-24T11:17:53.201Z,11.10
2022-11-24T11:20:25.598Z,11.16
2022-11-24T11:22:54.299Z,11.16
2022-11-24T11:25:22.620Z,11.17
2022-11-24T11:27:49.106Z,11.21
2022-11-24T11:35:48.510Z,11.31
2022-11-24T11:38:18.693Z,11.39
2022-11-24T11:40:48.824Z,11.43
2022-11-24T11:43:24.429Z,11.47
2022-11-24T11:46:04.036Z,11.46
2022-11-24T11:48:42.263Z,11.48
2022-11-24T11:51:23.264Z,11.48
2022-11-24T11:53:50.373Z,11.51
2022-11-24T11:56:40.222Z,11.49
2022-11-24T11:59:12.234Z,11.48
2022-11-24T12:01:45.457Z,11.43
2022-11-24T12:04:30.202Z,11.42
2022-11-24T12:07:01.372Z,11.44
2022-11-24T12:09:37.510Z,11.45
2022-11-24T12:12:23.388Z,11.42
2022-11-24T12:15:29.572Z,11.51
2022-11-24T12:18:40.188Z,11.56
2022-11-24T12:21:26.763Z,11.53
2022-11-24T12:24:16.270Z,11.51
2022-11-24T12:26:42.718Z,11.55
2022-11-24T12:29:29.286Z,11.58
2022-11-24T12:32:15.745Z,11.56
2022-11-24T12:34:54.489Z,11.55
2022-11-24T12:37:32.972Z,11.59
2022-11-24T12:40:02.470Z,11.54
2022-11-24T12:42:42.208Z,11.50
2022-11-24T12:45:09.129Z,11.49
2022-11-24T12:47:35.466Z,11.47
2022-11-24T12:50:02.559Z,11.45
2022-11-24T12:52:32.915Z,11.42
2022-11-24T12:55:00.105Z,11.38
2022-11-24T12:57:34.199Z,11.40
2022-11-24T13:00:03.567Z,11.37
2022-11-24T13:02:36.745Z,11.35
2022-11-24T13:05:06.841Z,11.35
2022-11-24T13:07:43.261Z,11.35
2022-11-24T13:10:46.502Z,11.35
2022-11-24T13:13:12.657Z,11.33
2022-11-24T13:16:20.598Z,11.33
2022-11-24T13:18:53.800Z,11.33
2022-11-24T13:21:29.390Z,11.33
2022-11-24T13:24:04.417Z,11.32
2022-11-24T13:26:43.336Z,11.32
2022-11-24T13:29:28.375Z,11.30
2022-11-24T13:31:56.185Z,11.29
2022-11-24T13:34:43.831Z,11.29
2022-11-24T13:37:32.102Z,11.29
2022-11-24T13:40:03.019Z,11.31
2022-11-24T13:42:43.897Z,11.31
2022-11-24T13:45:31.084Z,11.34
2022-11-24T13:47:57.546Z,11.40
2022-11-24T13:50:43.920Z,11.44
2022-11-24T13:53:30.075Z,11.48
2022-11-24T13:55:56.460Z,11.50
2022-11-24T13:58:22.811Z,11.48
2022-11-24T14:01:08.317Z,11.45
2022-11-24T14:03:36.386Z,11.45
2022-11-24T14:06:03.148Z,11.43
2022-11-24T14:08:33.789Z,11.40
2022-11-24T14:11:01.449Z,11.39
2022-11-24T14:13:29.217Z,11.35
2022-11-24T14:15:59.752Z,11.32
2022-11-24T14:18:26.224Z,11.32
2022-11-24T14:20:52.631Z,11.31
2022-11-24T14:23:19.225Z,11.28
2022-11-24T14:25:48.065Z,11.26
2022-11-24T14:28:23.530Z,11.26
2022-11-24T14:30:50.119Z,11.26
2022-11-24T14:33:19.457Z,11.26
2022-11-24T14:35:47.015Z,11.23
2022-11-24T14:38:13.383Z,11.20
2022-11-24T14:40:41.527Z,11.16
2022-11-24T14:43:18.654Z,11.12
2022-11-24T14:45:52.853Z,11.10
2022-11-24T14:48:23.464Z,11.06
2022-11-24T14:50:50.085Z,11.05
2022-11-24T14:53:23.219Z,11.04
2022-11-24T14:56:06.796Z,11.02
2022-11-24T14:58:40.526Z,10.99
2022-11-24T15:01:09.550Z,10.98
2022-11-24T15:03:37.227Z,10.95
2022-11-24T15:06:04.042Z,10.92
2022-11-24T15:08:42.571Z,10.90
2022-11-24T15:11:09.102Z,10.88
2022-11-24T15:13:37.790Z,10.86
2022-11-24T15:16:18.376Z,10.86
2022-11-24T15:18:47.794Z,10.84
2022-11-24T15:21:19.233Z,10.82
2022-11-24T15:24:04.305Z,10.81
2022-11-24T15:26:35.301Z,10.79
2022-11-24T15:29:04.906Z,10.75
2022-11-24T15:31:32.036Z,10.73
2022-11-24T15:33:58.510Z,10.70
2022-11-24T15:36:26.405Z,10.66
2022-11-24T15:38:53.345Z,10.61
2022-11-24T15:41:20.628Z,10.60
2022-11-24T15:43:47.069Z,10.55
2022-11-24T15:46:13.654Z,10.53
2022-11-24T15:48:40.092Z,10.52
2022-11-24T15:51:07.821Z,10.50
2022-11-24T15:53:35.981Z,10.50
2022-11-24T15:56:03.236Z,10.58
2022-11-24T15:58:29.621Z,10.60
2022-11-24T16:00:56.122Z,10.59
2022-11-24T16:06:12.708Z,10.47
2022-11-24T16:08:39.229Z,10.40
2022-11-24T16:11:05.851Z,10.38
2022-11-24T16:13:32.275Z,10.35
2022-11-24T16:15:58.814Z,10.30
2022-11-24T16:18:25.272Z,10.26
2022-11-24T16:20:51.636Z,10.25
2022-11-24T16:23:18.108Z,10.23
2022-11-24T16:25:44.603Z,10.21
2022-11-24T16:28:10.983Z,10.23
2022-11-24T16:30:38.206Z,10.23
2022-11-24T16:33:06.584Z,10.19
2022-11-24T16:35:33.285Z,10.18
2022-11-24T16:37:59.718Z,10.17
2022-11-24T16:40:26.632Z,10.14
2022-11-24T16:42:53.069Z,10.14
2022-11-24T16:45:19.617Z,10.13
2022-11-24T16:47:45.937Z,10.11
2022-11-24T16:50:12.361Z,10.07
2022-11-24T16:52:38.889Z,10.06
2022-11-24T16:55:06.841Z,10.03
2022-11-24T16:57:33.365Z,10.05
2022-11-24T16:59:59.727Z,10.03
2022-11-24T17:02:26.226Z,10.03
2022-11-24T17:04:52.915Z,10.00
2022-11-24T17:07:19.736Z,9.97
2022-11-24T17:09:46.132Z,9.97
2022-11-24T17:12:12.770Z,9.97
2022-11-24T17:14:39.215Z,9.98
2022-11-24T17:17:05.533Z,9.97
2022-11-24T17:19:32.225Z,10.05
2022-11-24T17:21:58.841Z,10.03
2022-11-24T17:24:25.287Z,9.97
2022-11-24T17:26:52.075Z,9.90
2022-11-24T17:29:18.749Z,9.84
2022-11-24T17:31:45.321Z,9.83
2022-11-24T17:34:12.066Z,9.79
2022-11-24T17:36:39.956Z,9.76
2022-11-24T17:39:07.167Z,9.75
2022-11-24T17:41:33.874Z,9.68
2022-11-24T17:44:00.343Z,9.64
2022-11-24T17:46:27.738Z,9.61
2022-11-24T17:48:54.489Z,9.59
2022-11-24T17:51:40.054Z,9.60
2022-11-24T17:54:45.367Z,9.61
2022-11-24T17:57:11.641Z,9.66
2022-11-24T17:59:38.089Z,9.66
2022-11-24T18:02:04.527Z,9.70
2022-11-24T18:04:31.043Z,9.70
2022-11-24T18:06:57.382Z,9.68
2022-11-24T18:09:23.680Z,9.62
2022-11-24T18:11:51.960Z,9.59
2022-11-24T18:14:23.011Z,9.53
2022-11-24T18:16:51.394Z,9.53
2022-11-24T18:19:17.988Z,9.46
2022-11-24T18:21:46.540Z,9.49
2022-11-24T18:24:14.172Z,9.48
2022-11-24T18:26:53.325Z,9.47
2022-11-24T18:29:21.744Z,9.45
2022-11-24T18:31:48.336Z,9.47
2022-11-24T18:34:14.759Z,9.46
2022-11-24T18:36:41.185Z,9.44
2022-11-24T18:39:08.731Z,9.45
2022-11-24T18:41:35.539Z,9.43
2022-11-24T18:44:02.998Z,9.43
2022-11-24T18:46:29.827Z,9.44
2022-11-24T18:48:56.389Z,9.41
2022-11-24T18:51:23.434Z,9.34
2022-11-24T18:53:51.435Z,9.32
2022-11-24T18:56:18.078Z,9.30
2022-11-24T18:58:45.397Z,9.23
2022-11-24T19:01:13.422Z,9.21
2022-11-24T19:03:46.552Z,9.19
2022-11-24T19:06:21.085Z,9.12
2022-11-24T19:08:48.354Z,9.11
2022-11-24T19:11:19.504Z,9.11
2022-11-24T19:13:46.343Z,9.08
2022-11-24T19:16:13.314Z,9.04
2022-11-24T19:18:39.970Z,9.01
2022-11-24T19:21:06.452Z,8.99
2022-11-24T19:23:35.229Z,9.02
2022-11-24T19:26:02.033Z,8.95
2022-11-24T19:28:31.392Z,8.94
2022-11-24T19:31:01.937Z,8.89
2022-11-24T19:33:28.686Z,8.86
2022-11-24T19:36:02.606Z,8.78
2022-11-24T19:38:33.061Z,8.77
2022-11-24T19:41:00.894Z,8.75
2022-11-24T19:43:27.303Z,8.75
2022-11-24T19:45:53.702Z,8.66
2022-11-24T19:48:20.295Z,8.63
2022-11-24T19:50:46.830Z,8.65
2022-11-24T19:53:13.272Z,8.68
2022-11-24T19:55:39.706Z,8.62
2022-11-24T19:58:07.205Z,8.59
2022-11-24T20:00:33.579Z,8.56
2022-11-24T20:03:00.019Z,8.60
2022-11-24T20:05:26.446Z,8.57
2022-11-24T20:07:52.841Z,8.53
2022-11-24T20:10:19.418Z,8.53
2022-11-24T20:12:45.791Z,8.54
2022-11-24T20:15:12.176Z,8.55
2022-11-24T20:17:38.497Z,8.52
2022-11-24T20:20:05.259Z,8.55
2022-11-24T20:22:31.758Z,8.48
2022-11-24T20:24:58.132Z,8.54
2022-11-24T20:27:24.565Z,8.53
2022-11-24T20:29:51.119Z,8.55
2022-11-24T20:59:19.055Z,8.41
2022-11-24T21:01:47.691Z,8.40
2022-11-24T21:04:16.387Z,8.41
2022-11-24T21:06:42.819Z,8.40
2022-11-24T21:09:09.607Z,8.33
2022-11-24T21:11:37.214Z,8.34
2022-11-24T21:14:04.016Z,8.32
2022-11-24T21:16:31.838Z,8.35
2022-11-24T21:19:01.146Z,8.32
2022-11-24T21:21:33.225Z,8.32
2022-11-24T21:24:04.244Z,8.27
2022-11-24T21:26:30.864Z,8.24
2022-11-24T21:28:57.567Z,8.28
2022-11-24T21:31:24.366Z,8.23
2022-11-24T21:33:51.874Z,8.22
2022-11-24T21:36:19.699Z,8.21
2022-11-24T21:38:50.273Z,8.18
2022-11-24T21:41:16.887Z,8.16
2022-11-24T21:43:43.817Z,8.19
2022-11-24T21:46:10.820Z,8.15
2022-11-24T21:48:38.443Z,8.13
2022-11-24T21:51:06.000Z,8.16
2022-11-24T21:53:33.585Z,8.16
2022-11-24T21:56:01.300Z,8.11
2022-11-24T21:58:28.178Z,8.16
2022-11-24T22:00:55.079Z,8.18
2022-11-24T22:03:21.730Z,8.17
2022-11-24T22:05:58.607Z,8.19
2022-11-24T22:08:25.890Z,8.22
2022-11-24T22:10:52.615Z,8.22
2022-11-24T22:13:19.419Z,8.16
2022-11-24T22:15:49.232Z,8.18
2022-11-24T22:18:15.786Z,8.13
2022-11-24T22:20:53.297Z,8.17
2022-11-24T22:23:20.013Z,8.18
2022-11-24T22:25:49.016Z,8.12
2022-11-24T22:28:15.383Z,8.14
2022-11-24T22:30:41.832Z,8.13
2022-11-24T22:33:08.276Z,8.17
2022-11-24T22:35:37.509Z,8.21
2022-11-24T22:38:03.981Z,8.21
2022-11-24T22:40:30.364Z,8.23
2022-11-24T22:42:58.155Z,8.22
2022-11-24T22:45:24.572Z,8.27
2022-11-24T22:47:53.704Z,8.31
2022-11-24T22:50:20.265Z,8.33
2022-11-24T22:52:46.745Z,8.38
2022-11-24T22:55:13.221Z,8.40
2022-11-24T22:57:39.718Z,8.39
2022-11-24T23:00:16.431Z,8.37
2022-11-24T23:02:43.159Z,8.36
2022-11-24T23:05:09.865Z,8.32
2022-11-24T23:07:36.706Z,8.31
2022-11-24T23:10:03.286Z,8.27
2022-11-24T23:12:29.983Z,8.28
2022-11-24T23:14:57.621Z,8.25
2022-11-24T23:17:25.035Z,8.23
2022-11-24T23:19:51.459Z,8.03
2022-11-24T23:22:18.038Z,8.20
2022-11-24T23:24:44.363Z,8.17
2022-11-24T23:27:10.816Z,8.16
2022-11-24T23:29:37.210Z,8.18
2022-11-24T23:32:03.821Z,8.18
2022-11-24T23:34:30.415Z,8.21
2022-11-24T23:36:56.896Z,8.17
2022-11-24T23:39:24.346Z,8.19
2022-11-24T23:41:51.044Z,8.12
2022-11-24T23:44:17.659Z,8.16
2022-11-24T23:46:44.499Z,8.13
2022-11-24T23:49:11.643Z,8.07
2022-11-24T23:51:41.868Z,8.09
2022-11-24T23:54:12.949Z,8.11
2022-11-24T23:56:39.419Z,8.14
2022-11-24T23:59:05.948Z,8.11
